Airfield :
LOGIN :

Register | Disclaimer

   EN    FR    IT 

 










Legend :    VFR   Marginal VFR   IFR   Intensive IFR   Very Intensive IFR
Visi :
Ceiling :
>= 8 km
>= 3000ft
5 to 8 km
1000 to 3000 ft
1500m to 5 km
500 to 1000 ft
800 to 1500m
200 to 500 ft
< 800m
< 200 ft
Symbols :   Thunderstorms  Fog  Heavy snow  Heavy precipitations  Wind > 20 kt
SIGMETs :     Misc.  Thunderstorms  Icing  Turbulence  Mountain Waves  Volcanic Ashes







- Airport Elevation : 65 ft
- IATA code : PMO


LICJ - Palermo Punta Raisi

CURRENT METAR :
  • 241650Z 30005KT 9999 SCT019 26/21 Q1015

EXPIRED METARs :
  • 241620Z 30006KT 9999 SCT019 25/21 Q1015
  • 241550Z 29006KT 9999 SCT019 26/22 Q1015
  • 241520Z 29010KT 9999 SCT019 26/22 Q1015
  • 241450Z 29012KT 9999 FEW020 26/22 Q1015
  • 241420Z 28017KT 9999 FEW020 26/22 Q1015

TAF TAF LICJ
Valid from the 24 at 12:00 until the 25 at 12:00 UTC


241100Z 2412/2512 29012KT 9999 FEW030
BECMG 2418/2420 VRB05KT
TEMPO 2503/2512 TSRA
BECMG 2509/2511 06018KT
No reported NOTAMs for that airfield.



MET'MAP, your aeronautical weather chart ! - Copyright ORBIFLY December 2007 - Disclaimer

ORBIFLY MET'MAP TEAM :

Programming & Development : Alexandra Zaïnal
Concept & Development : Baudouin d'Aumeries
Co-Development & Prog : Marc-Olivier Méhu
Technical & hardware support : Manuel Goepfert

Contact : metmap@orbifly.com




SOURCES & CREDITS :

   NOAA